sensor_id;sensor_type;location;lat;lon;timestamp;temperature;humidity
61979;DHT22;47938;48.176;16.414;2022-09-01T00:01:00;17.40;76.90
61979;DHT22;47938;48.176;16.414;2022-09-01T00:03:25;17.30;76.70
61979;DHT22;47938;48.176;16.414;2022-09-01T00:05:51;17.40;76.30
61979;DHT22;47938;48.176;16.414;2022-09-01T00:08:17;17.40;75.10
61979;DHT22;47938;48.176;16.414;2022-09-01T00:10:42;17.40;75.20
61979;DHT22;47938;48.176;16.414;2022-09-01T00:13:08;17.40;74.30
61979;DHT22;47938;48.176;16.414;2022-09-01T00:15:34;17.40;74.20
61979;DHT22;47938;48.176;16.414;2022-09-01T00:18:00;17.40;74.60
61979;DHT22;47938;48.176;16.414;2022-09-01T00:20:27;17.30;74.40
61979;DHT22;47938;48.176;16.414;2022-09-01T00:22:53;17.40;74.10
61979;DHT22;47938;48.176;16.414;2022-09-01T00:25:19;17.30;74.10
61979;DHT22;47938;48.176;16.414;2022-09-01T00:27:46;17.30;73.60
61979;DHT22;47938;48.176;16.414;2022-09-01T00:30:12;17.30;73.60
61979;DHT22;47938;48.176;16.414;2022-09-01T00:32:37;17.30;73.80
61979;DHT22;47938;48.176;16.414;2022-09-01T00:35:04;17.30;74.00
61979;DHT22;47938;48.176;16.414;2022-09-01T00:37:30;17.30;73.60
61979;DHT22;47938;48.176;16.414;2022-09-01T00:39:56;17.30;74.00
61979;DHT22;47938;48.176;16.414;2022-09-01T00:42:22;17.30;74.10
61979;DHT22;47938;48.176;16.414;2022-09-01T00:44:47;17.20;74.00
61979;DHT22;47938;48.176;16.414;2022-09-01T00:47:13;17.20;74.20
61979;DHT22;47938;48.176;16.414;2022-09-01T00:49:45;17.20;73.90
61979;DHT22;47938;48.176;16.414;2022-09-01T00:52:30;17.30;73.50
61979;DHT22;47938;48.176;16.414;2022-09-01T00:55:01;17.20;73.60
61979;DHT22;47938;48.176;16.414;2022-09-01T00:57:32;17.20;73.40
61979;DHT22;47938;48.176;16.414;2022-09-01T01:02:36;17.10;73.50
61979;DHT22;47938;48.176;16.414;2022-09-01T01:05:04;17.10;73.50
61979;DHT22;47938;48.176;16.414;2022-09-01T01:07:30;17.10;73.80
61979;DHT22;47938;48.176;16.414;2022-09-01T01:09:56;17.10;74.10
61979;DHT22;47938;48.176;16.414;2022-09-01T01:12:22;17.10;73.90
61979;DHT22;47938;48.176;16.414;2022-09-01T01:14:49;17.10;73.90
61979;DHT22;47938;48.176;16.414;2022-09-01T01:17:16;17.10;73.80
61979;DHT22;47938;48.176;16.414;2022-09-01T01:19:45;17.10;73.90
61979;DHT22;47938;48.176;16.414;2022-09-01T01:22:19;17.10;73.80
61979;DHT22;47938;48.176;16.414;2022-09-01T01:24:46;17.10;73.90
61979;DHT22;47938;48.176;16.414;2022-09-01T01:27:12;17.00;74.10
61979;DHT22;47938;48.176;16.414;2022-09-01T01:29:38;17.00;73.90
61979;DHT22;47938;48.176;16.414;2022-09-01T01:32:04;17.10;73.90
61979;DHT22;47938;48.176;16.414;2022-09-01T01:34:29;17.00;73.90
61979;DHT22;47938;48.176;16.414;2022-09-01T01:36:55;17.00;73.60
61979;DHT22;47938;48.176;16.414;2022-09-01T01:39:22;17.00;73.70
61979;DHT22;47938;48.176;16.414;2022-09-01T01:41:48;17.00;73.50
61979;DHT22;47938;48.176;16.414;2022-09-01T01:44:16;17.00;73.70
61979;DHT22;47938;48.176;16.414;2022-09-01T01:46:47;17.00;73.40
61979;DHT22;47938;48.176;16.414;2022-09-01T01:49:14;17.00;73.40
61979;DHT22;47938;48.176;16.414;2022-09-01T01:51:40;17.00;73.00
61979;DHT22;47938;48.176;16.414;2022-09-01T01:54:05;17.00;73.30
61979;DHT22;47938;48.176;16.414;2022-09-01T01:56:32;17.00;73.40
61979;DHT22;47938;48.176;16.414;2022-09-01T01:58:58;17.00;73.10
61979;DHT22;47938;48.176;16.414;2022-09-01T02:01:26;17.00;73.20
61979;DHT22;47938;48.176;16.414;2022-09-01T02:03:51;17.00;73.40
61979;DHT22;47938;48.176;16.414;2022-09-01T02:06:18;16.90;73.50
61979;DHT22;47938;48.176;16.414;2022-09-01T02:08:43;16.90;73.50
61979;DHT22;47938;48.176;16.414;2022-09-01T02:11:09;16.90;73.60
61979;DHT22;47938;48.176;16.414;2022-09-01T02:13:34;16.90;73.80
61979;DHT22;47938;48.176;16.414;2022-09-01T02:16:09;16.90;73.80
61979;DHT22;47938;48.176;16.414;2022-09-01T02:18:38;16.90;73.80
61979;DHT22;47938;48.176;16.414;2022-09-01T02:21:07;16.90;74.00
61979;DHT22;47938;48.176;16.414;2022-09-01T02:23:33;16.90;73.80
61979;DHT22;47938;48.176;16.414;2022-09-01T02:25:59;16.90;74.90
61979;DHT22;47938;48.176;16.414;2022-09-01T02:28:25;16.90;73.90
61979;DHT22;47938;48.176;16.414;2022-09-01T02:30:51;16.90;73.80
61979;DHT22;47938;48.176;16.414;2022-09-01T02:33:18;16.90;73.80
61979;DHT22;47938;48.176;16.414;2022-09-01T02:35:46;16.90;73.80
61979;DHT22;47938;48.176;16.414;2022-09-01T02:38:12;16.90;74.00
61979;DHT22;47938;48.176;16.414;2022-09-01T02:40:37;16.90;73.80
61979;DHT22;47938;48.176;16.414;2022-09-01T02:43:03;17.00;72.90
61979;DHT22;47938;48.176;16.414;2022-09-01T02:45:28;17.00;72.70
61979;DHT22;47938;48.176;16.414;2022-09-01T02:47:57;17.00;72.90
61979;DHT22;47938;48.176;16.414;2022-09-01T02:50:23;17.00;74.00
61979;DHT22;47938;48.176;16.414;2022-09-01T02:52:50;17.00;73.00
61979;DHT22;47938;48.176;16.414;2022-09-01T02:55:15;17.00;71.60
61979;DHT22;47938;48.176;16.414;2022-09-01T02:57:41;17.00;72.00
61979;DHT22;47938;48.176;16.414;2022-09-01T03:00:08;17.00;72.50
61979;DHT22;47938;48.176;16.414;2022-09-01T03:02:34;17.00;72.20
61979;DHT22;47938;48.176;16.414;2022-09-01T03:04:59;17.00;72.30
61979;DHT22;47938;48.176;16.414;2022-09-01T03:07:25;17.10;72.10
61979;DHT22;47938;48.176;16.414;2022-09-01T03:09:50;17.10;72.50
61979;DHT22;47938;48.176;16.414;2022-09-01T03:12:16;17.00;72.70
61979;DHT22;47938;48.176;16.414;2022-09-01T03:14:41;17.00;72.40
61979;DHT22;47938;48.176;16.414;2022-09-01T03:17:07;16.90;72.90
61979;DHT22;47938;48.176;16.414;2022-09-01T03:19:33;16.90;73.40
61979;DHT22;47938;48.176;16.414;2022-09-01T03:21:58;16.90;73.60
61979;DHT22;47938;48.176;16.414;2022-09-01T03:24:24;16.90;73.60
61979;DHT22;47938;48.176;16.414;2022-09-01T03:26:49;16.90;73.80
61979;DHT22;47938;48.176;16.414;2022-09-01T03:29:16;16.90;73.50
61979;DHT22;47938;48.176;16.414;2022-09-01T03:31:41;17.00;72.80
61979;DHT22;47938;48.176;16.414;2022-09-01T03:34:07;16.90;72.70
61979;DHT22;47938;48.176;16.414;2022-09-01T03:36:33;17.00;72.70
61979;DHT22;47938;48.176;16.414;2022-09-01T03:38:59;17.00;73.20
61979;DHT22;47938;48.176;16.414;2022-09-01T03:41:27;16.90;73.40
61979;DHT22;47938;48.176;16.414;2022-09-01T03:43:53;16.90;73.30
61979;DHT22;47938;48.176;16.414;2022-09-01T03:46:18;16.90;73.70
61979;DHT22;47938;48.176;16.414;2022-09-01T03:48:44;16.90;74.10
61979;DHT22;47938;48.176;16.414;2022-09-01T03:51:10;16.80;74.20
61979;DHT22;47938;48.176;16.414;2022-09-01T03:53:37;16.80;74.80
61979;DHT22;47938;48.176;16.414;2022-09-01T03:56:03;16.80;74.60
61979;DHT22;47938;48.176;16.414;2022-09-01T03:58:29;16.80;75.00
61979;DHT22;47938;48.176;16.414;2022-09-01T04:00:57;16.70;75.10
61979;DHT22;47938;48.176;16.414;2022-09-01T04:03:25;16.70;75.70
61979;DHT22;47938;48.176;16.414;2022-09-01T04:05:52;16.80;75.60
61979;DHT22;47938;48.176;16.414;2022-09-01T04:08:19;16.80;75.60
61979;DHT22;47938;48.176;16.414;2022-09-01T04:10:51;16.80;75.70
61979;DHT22;47938;48.176;16.414;2022-09-01T04:13:21;16.80;75.40
61979;DHT22;47938;48.176;16.414;2022-09-01T04:15:47;16.80;75.60
61979;DHT22;47938;48.176;16.414;2022-09-01T04:18:13;16.80;75.30
61979;DHT22;47938;48.176;16.414;2022-09-01T04:20:39;16.80;75.50
61979;DHT22;47938;48.176;16.414;2022-09-01T04:23:06;16.80;75.60
61979;DHT22;47938;48.176;16.414;2022-09-01T04:25:31;16.80;74.60
61979;DHT22;47938;48.176;16.414;2022-09-01T04:27:57;16.80;75.00
61979;DHT22;47938;48.176;16.414;2022-09-01T04:30:22;16.80;74.60
61979;DHT22;47938;48.176;16.414;2022-09-01T04:32:48;16.80;74.80
61979;DHT22;47938;48.176;16.414;2022-09-01T04:35:14;16.80;74.10
61979;DHT22;47938;48.176;16.414;2022-09-01T04:37:39;16.70;74.00
61979;DHT22;47938;48.176;16.414;2022-09-01T04:40:06;16.70;74.40
61979;DHT22;47938;48.176;16.414;2022-09-01T04:42:31;16.80;74.40
61979;DHT22;47938;48.176;16.414;2022-09-01T04:44:58;16.90;73.40
61979;DHT22;47938;48.176;16.414;2022-09-01T04:47:25;16.90;73.00
61979;DHT22;47938;48.176;16.414;2022-09-01T04:49:53;17.00;72.50
61979;DHT22;47938;48.176;16.414;2022-09-01T04:52:18;17.00;72.20
61979;DHT22;47938;48.176;16.414;2022-09-01T04:54:44;17.10;71.40
61979;DHT22;47938;48.176;16.414;2022-09-01T04:57:10;17.10;70.50
61979;DHT22;47938;48.176;16.414;2022-09-01T04:59:35;17.10;70.60
61979;DHT22;47938;48.176;16.414;2022-09-01T05:02:01;17.20;69.90
61979;DHT22;47938;48.176;16.414;2022-09-01T05:04:30;17.30;69.40
61979;DHT22;47938;48.176;16.414;2022-09-01T05:06:57;17.40;68.20
61979;DHT22;47938;48.176;16.414;2022-09-01T05:09:23;17.60;67.50
61979;DHT22;47938;48.176;16.414;2022-09-01T05:11:48;17.90;66.30
61979;DHT22;47938;48.176;16.414;2022-09-01T05:14:14;17.90;65.70
61979;DHT22;47938;48.176;16.414;2022-09-01T05:16:40;17.80;66.20
61979;DHT22;47938;48.176;16.414;2022-09-01T05:19:07;17.80;66.00
61979;DHT22;47938;48.176;16.414;2022-09-01T05:21:36;17.80;65.90
61979;DHT22;47938;48.176;16.414;2022-09-01T05:24:02;17.80;65.90
61979;DHT22;47938;48.176;16.414;2022-09-01T05:26:30;18.00;65.20
61979;DHT22;47938;48.176;16.414;2022-09-01T05:28:58;18.30;63.50
61979;DHT22;47938;48.176;16.414;2022-09-01T05:31:26;18.50;62.80
61979;DHT22;47938;48.176;16.414;2022-09-01T05:33:52;18.20;63.40
61979;DHT22;47938;48.176;16.414;2022-09-01T05:36:22;18.50;62.00
61979;DHT22;47938;48.176;16.414;2022-09-01T05:38:48;18.70;61.40
61979;DHT22;47938;48.176;16.414;2022-09-01T05:41:15;19.00;60.40
61979;DHT22;47938;48.176;16.414;2022-09-01T05:43:43;19.30;59.10
61979;DHT22;47938;48.176;16.414;2022-09-01T05:46:09;19.20;59.00
61979;DHT22;47938;48.176;16.414;2022-09-01T05:48:35;19.20;58.40
61979;DHT22;47938;48.176;16.414;2022-09-01T05:51:07;19.30;59.30
61979;DHT22;47938;48.176;16.414;2022-09-01T05:53:33;19.40;59.00
61979;DHT22;47938;48.176;16.414;2022-09-01T05:56:00;19.80;56.80
61979;DHT22;47938;48.176;16.414;2022-09-01T05:58:27;20.00;54.90
61979;DHT22;47938;48.176;16.414;2022-09-01T06:00:54;20.00;55.80
61979;DHT22;47938;48.176;16.414;2022-09-01T06:03:20;20.40;54.70
61979;DHT22;47938;48.176;16.414;2022-09-01T06:05:47;20.60;53.80
61979;DHT22;47938;48.176;16.414;2022-09-01T06:08:13;20.20;53.50
61979;DHT22;47938;48.176;16.414;2022-09-01T06:10:40;20.60;53.50
61979;DHT22;47938;48.176;16.414;2022-09-01T06:13:07;21.50;51.70
61979;DHT22;47938;48.176;16.414;2022-09-01T06:15:34;22.10;49.30
61979;DHT22;47938;48.176;16.414;2022-09-01T06:18:00;21.80;48.60
61979;DHT22;47938;48.176;16.414;2022-09-01T06:20:26;21.60;50.10
61979;DHT22;47938;48.176;16.414;2022-09-01T06:22:51;22.30;48.30
61979;DHT22;47938;48.176;16.414;2022-09-01T06:25:17;23.50;45.90
61979;DHT22;47938;48.176;16.414;2022-09-01T06:27:44;22.70;45.90
61979;DHT22;47938;48.176;16.414;2022-09-01T06:30:11;22.70;46.80
61979;DHT22;47938;48.176;16.414;2022-09-01T06:32:37;22.70;46.70
61979;DHT22;47938;48.176;16.414;2022-09-01T06:35:03;22.90;45.60
61979;DHT22;47938;48.176;16.414;2022-09-01T06:37:28;23.40;45.00
61979;DHT22;47938;48.176;16.414;2022-09-01T06:39:54;22.80;45.90
61979;DHT22;47938;48.176;16.414;2022-09-01T06:42:19;23.30;45.10
61979;DHT22;47938;48.176;16.414;2022-09-01T06:44:45;22.80;45.80
61979;DHT22;47938;48.176;16.414;2022-09-01T06:47:11;22.80;46.00
61979;DHT22;47938;48.176;16.414;2022-09-01T06:49:36;22.80;46.40
61979;DHT22;47938;48.176;16.414;2022-09-01T06:52:03;23.40;45.00
61979;DHT22;47938;48.176;16.414;2022-09-01T06:54:30;22.90;45.80
61979;DHT22;47938;48.176;16.414;2022-09-01T06:56:55;23.30;45.20
61979;DHT22;47938;48.176;16.414;2022-09-01T06:59:21;22.60;46.50
61979;DHT22;47938;48.176;16.414;2022-09-01T07:01:47;22.90;46.90
61979;DHT22;47938;48.176;16.414;2022-09-01T07:04:12;23.10;45.70
61979;DHT22;47938;48.176;16.414;2022-09-01T07:06:39;22.90;45.70
61979;DHT22;47938;48.176;16.414;2022-09-01T07:09:05;23.00;45.80
61979;DHT22;47938;48.176;16.414;2022-09-01T07:11:33;23.20;44.50
61979;DHT22;47938;48.176;16.414;2022-09-01T07:14:01;23.20;44.80
61979;DHT22;47938;48.176;16.414;2022-09-01T07:16:29;23.20;44.80
61979;DHT22;47938;48.176;16.414;2022-09-01T07:18:57;23.00;46.40
61979;DHT22;47938;48.176;16.414;2022-09-01T07:21:24;22.70;46.30
61979;DHT22;47938;48.176;16.414;2022-09-01T07:23:50;23.10;45.10
61979;DHT22;47938;48.176;16.414;2022-09-01T07:26:17;22.70;45.80
61979;DHT22;47938;48.176;16.414;2022-09-01T07:28:46;22.60;46.00
61979;DHT22;47938;48.176;16.414;2022-09-01T07:31:30;22.30;44.80
61979;DHT22;47938;48.176;16.414;2022-09-01T07:33:58;21.60;46.00
61979;DHT22;47938;48.176;16.414;2022-09-01T07:36:24;21.50;46.80
61979;DHT22;47938;48.176;16.414;2022-09-01T07:38:50;22.20;46.50
61979;DHT22;47938;48.176;16.414;2022-09-01T07:41:16;21.70;45.10
61979;DHT22;47938;48.176;16.414;2022-09-01T07:43:41;21.80;46.40
61979;DHT22;47938;48.176;16.414;2022-09-01T07:46:07;22.00;45.40
61979;DHT22;47938;48.176;16.414;2022-09-01T07:48:33;21.90;44.70
61979;DHT22;47938;48.176;16.414;2022-09-01T07:50:59;21.50;44.90
61979;DHT22;47938;48.176;16.414;2022-09-01T07:53:27;21.30;45.20
61979;DHT22;47938;48.176;16.414;2022-09-01T07:55:54;21.00;46.50
61979;DHT22;47938;48.176;16.414;2022-09-01T07:58:23;21.10;45.30
61979;DHT22;47938;48.176;16.414;2022-09-01T08:00:50;20.90;45.50
61979;DHT22;47938;48.176;16.414;2022-09-01T08:03:18;20.90;45.20
61979;DHT22;47938;48.176;16.414;2022-09-01T08:05:45;21.20;45.50
61979;DHT22;47938;48.176;16.414;2022-09-01T08:08:10;20.90;45.10
61979;DHT22;47938;48.176;16.414;2022-09-01T08:10:41;20.90;44.20
61979;DHT22;47938;48.176;16.414;2022-09-01T08:13:08;20.70;44.30
61979;DHT22;47938;48.176;16.414;2022-09-01T08:15:34;20.60;44.30
61979;DHT22;47938;48.176;16.414;2022-09-01T08:17:59;20.30;44.20
61979;DHT22;47938;48.176;16.414;2022-09-01T08:20:25;20.60;44.40
61979;DHT22;47938;48.176;16.414;2022-09-01T08:22:51;20.70;45.60
61979;DHT22;47938;48.176;16.414;2022-09-01T08:25:16;21.10;44.30
61979;DHT22;47938;48.176;16.414;2022-09-01T08:27:42;21.10;42.90
61979;DHT22;47938;48.176;16.414;2022-09-01T08:30:10;20.90;43.10
61979;DHT22;47938;48.176;16.414;2022-09-01T08:32:36;20.80;43.50
61979;DHT22;47938;48.176;16.414;2022-09-01T08:35:03;20.90;43.60
61979;DHT22;47938;48.176;16.414;2022-09-01T08:37:29;20.90;42.70
61979;DHT22;47938;48.176;16.414;2022-09-01T08:39:55;20.90;42.80
61979;DHT22;47938;48.176;16.414;2022-09-01T08:45:18;20.80;42.20
61979;DHT22;47938;48.176;16.414;2022-09-01T08:47:45;21.00;41.20
61979;DHT22;47938;48.176;16.414;2022-09-01T08:50:11;21.10;41.40
61979;DHT22;47938;48.176;16.414;2022-09-01T08:52:41;20.90;40.70
61979;DHT22;47938;48.176;16.414;2022-09-01T08:57:45;21.10;40.80
61979;DHT22;47938;48.176;16.414;2022-09-01T09:00:14;21.00;40.60
61979;DHT22;47938;48.176;16.414;2022-09-01T09:08:53;20.90;40.50
61979;DHT22;47938;48.176;16.414;2022-09-01T09:17:07;21.60;39.50
61979;DHT22;47938;48.176;16.414;2022-09-01T09:19:34;21.30;38.80
61979;DHT22;47938;48.176;16.414;2022-09-01T09:22:04;21.40;39.70
61979;DHT22;47938;48.176;16.414;2022-09-01T09:24:35;21.30;39.10
61979;DHT22;47938;48.176;16.414;2022-09-01T09:27:02;21.30;39.50
61979;DHT22;47938;48.176;16.414;2022-09-01T09:29:27;21.30;38.80
61979;DHT22;47938;48.176;16.414;2022-09-01T09:32:05;21.40;38.50
61979;DHT22;47938;48.176;16.414;2022-09-01T09:34:36;21.40;37.90
61979;DHT22;47938;48.176;16.414;2022-09-01T09:37:26;21.60;38.70
61979;DHT22;47938;48.176;16.414;2022-09-01T09:40:11;21.20;38.70
61979;DHT22;47938;48.176;16.414;2022-09-01T09:42:39;21.00;40.40
61979;DHT22;47938;48.176;16.414;2022-09-01T09:45:20;21.00;40.50
61979;DHT22;47938;48.176;16.414;2022-09-01T09:47:46;21.30;40.50
61979;DHT22;47938;48.176;16.414;2022-09-01T09:50:37;21.30;40.40
61979;DHT22;47938;48.176;16.414;2022-09-01T09:55:51;21.30;40.40
61979;DHT22;47938;48.176;16.414;2022-09-01T09:58:21;21.30;41.20
61979;DHT22;47938;48.176;16.414;2022-09-01T10:00:58;21.70;40.70
61979;DHT22;47938;48.176;16.414;2022-09-01T10:03:44;21.70;39.90
61979;DHT22;47938;48.176;16.414;2022-09-01T10:06:12;21.60;39.20
61979;DHT22;47938;48.176;16.414;2022-09-01T10:08:42;21.60;39.60
61979;DHT22;47938;48.176;16.414;2022-09-01T10:11:08;21.80;39.10
61979;DHT22;47938;48.176;16.414;2022-09-01T10:13:34;22.00;38.50
61979;DHT22;47938;48.176;16.414;2022-09-01T10:16:15;21.70;38.30
61979;DHT22;47938;48.176;16.414;2022-09-01T10:18:44;21.70;39.10
61979;DHT22;47938;48.176;16.414;2022-09-01T10:21:25;22.00;38.60
61979;DHT22;47938;48.176;16.414;2022-09-01T10:23:52;21.70;38.40
61979;DHT22;47938;48.176;16.414;2022-09-01T10:26:25;21.90;37.90
61979;DHT22;47938;48.176;16.414;2022-09-01T10:28:56;21.60;38.50
61979;DHT22;47938;48.176;16.414;2022-09-01T10:31:22;21.50;38.80
61979;DHT22;47938;48.176;16.414;2022-09-01T10:33:49;21.50;38.00
61979;DHT22;47938;48.176;16.414;2022-09-01T10:36:15;21.60;37.90
61979;DHT22;47938;48.176;16.414;2022-09-01T10:38:42;21.70;37.90
61979;DHT22;47938;48.176;16.414;2022-09-01T10:41:08;21.80;37.40
61979;DHT22;47938;48.176;16.414;2022-09-01T10:43:41;21.80;37.80
61979;DHT22;47938;48.176;16.414;2022-09-01T10:46:40;21.90;37.10
61979;DHT22;47938;48.176;16.414;2022-09-01T10:49:55;22.00;37.50
61979;DHT22;47938;48.176;16.414;2022-09-01T10:51:57;21.70;37.10
61979;DHT22;47938;48.176;16.414;2022-09-01T10:57:20;22.30;37.20
61979;DHT22;47938;48.176;16.414;2022-09-01T10:59:51;22.50;36.70
61979;DHT22;47938;48.176;16.414;2022-09-01T11:02:18;22.70;36.50
61979;DHT22;47938;48.176;16.414;2022-09-01T11:13:30;22.10;37.30
61979;DHT22;47938;48.176;16.414;2022-09-01T11:15:43;22.20;37.80
61979;DHT22;47938;48.176;16.414;2022-09-01T11:18:17;22.10;37.00
61979;DHT22;47938;48.176;16.414;2022-09-01T11:20:48;22.30;37.70
61979;DHT22;47938;48.176;16.414;2022-09-01T11:23:27;22.40;37.40
61979;DHT22;47938;48.176;16.414;2022-09-01T11:25:56;22.50;37.30
61979;DHT22;47938;48.176;16.414;2022-09-01T11:34:03;22.50;37.00
61979;DHT22;47938;48.176;16.414;2022-09-01T11:36:56;22.60;36.80
61979;DHT22;47938;48.176;16.414;2022-09-01T11:39:27;22.60;36.70
61979;DHT22;47938;48.176;16.414;2022-09-01T11:42:06;22.70;37.20
61979;DHT22;47938;48.176;16.414;2022-09-01T11:47:23;21.80;38.00
61979;DHT22;47938;48.176;16.414;2022-09-01T11:49:53;21.70;38.20
61979;DHT22;47938;48.176;16.414;2022-09-01T11:52:21;21.70;38.00
61979;DHT22;47938;48.176;16.414;2022-09-01T11:54:48;21.90;37.80
61979;DHT22;47938;48.176;16.414;2022-09-01T11:57:21;22.20;37.70
61979;DHT22;47938;48.176;16.414;2022-09-01T11:59:48;22.20;37.50
61979;DHT22;47938;48.176;16.414;2022-09-01T12:02:23;22.30;37.30
61979;DHT22;47938;48.176;16.414;2022-09-01T12:04:50;22.40;37.10
61979;DHT22;47938;48.176;16.414;2022-09-01T12:07:40;22.60;36.50
61979;DHT22;47938;48.176;16.414;2022-09-01T12:12:46;22.90;36.50
61979;DHT22;47938;48.176;16.414;2022-09-01T12:15:23;23.00;36.00
61979;DHT22;47938;48.176;16.414;2022-09-01T12:17:50;22.80;35.80
61979;DHT22;47938;48.176;16.414;2022-09-01T12:20:26;22.70;36.70
61979;DHT22;47938;48.176;16.414;2022-09-01T12:22:52;22.80;35.80
61979;DHT22;47938;48.176;16.414;2022-09-01T12:25:24;22.60;35.50
61979;DHT22;47938;48.176;16.414;2022-09-01T12:27:50;22.60;36.20
61979;DHT22;47938;48.176;16.414;2022-09-01T12:30:17;22.90;35.70
61979;DHT22;47938;48.176;16.414;2022-09-01T12:32:43;23.20;35.30
61979;DHT22;47938;48.176;16.414;2022-09-01T12:35:21;23.30;35.40
61979;DHT22;47938;48.176;16.414;2022-09-01T12:37:47;23.00;35.20
61979;DHT22;47938;48.176;16.414;2022-09-01T12:40:33;23.00;36.80
61979;DHT22;47938;48.176;16.414;2022-09-01T12:42:58;23.10;35.50
61979;DHT22;47938;48.176;16.414;2022-09-01T12:45:42;23.10;34.20
61979;DHT22;47938;48.176;16.414;2022-09-01T12:48:25;23.00;34.40
61979;DHT22;47938;48.176;16.414;2022-09-01T12:50:51;23.00;34.10
61979;DHT22;47938;48.176;16.414;2022-09-01T12:53:19;23.40;34.30
61979;DHT22;47938;48.176;16.414;2022-09-01T12:55:55;23.40;34.30
61979;DHT22;47938;48.176;16.414;2022-09-01T12:58:23;23.10;34.00
61979;DHT22;47938;48.176;16.414;2022-09-01T13:00:59;23.30;34.60
61979;DHT22;47938;48.176;16.414;2022-09-01T13:03:25;22.90;34.60
61979;DHT22;47938;48.176;16.414;2022-09-01T13:05:56;22.70;35.30
61979;DHT22;47938;48.176;16.414;2022-09-01T13:08:25;22.60;35.40
61979;DHT22;47938;48.176;16.414;2022-09-01T13:11:02;22.60;35.60
61979;DHT22;47938;48.176;16.414;2022-09-01T13:13:29;22.50;35.70
61979;DHT22;47938;48.176;16.414;2022-09-01T13:15:57;22.50;35.60
61979;DHT22;47938;48.176;16.414;2022-09-01T13:18:24;22.60;35.70
61979;DHT22;47938;48.176;16.414;2022-09-01T13:20:51;22.90;35.20
61979;DHT22;47938;48.176;16.414;2022-09-01T13:23:17;22.70;36.30
61979;DHT22;47938;48.176;16.414;2022-09-01T13:25:43;22.50;36.00
61979;DHT22;47938;48.176;16.414;2022-09-01T13:28:09;22.30;37.10
61979;DHT22;47938;48.176;16.414;2022-09-01T13:30:35;22.10;36.50
61979;DHT22;47938;48.176;16.414;2022-09-01T13:33:01;22.20;36.60
61979;DHT22;47938;48.176;16.414;2022-09-01T13:35:27;22.10;36.40
61979;DHT22;47938;48.176;16.414;2022-09-01T13:37:52;22.30;36.20
61979;DHT22;47938;48.176;16.414;2022-09-01T13:40:19;22.50;35.90
61979;DHT22;47938;48.176;16.414;2022-09-01T13:42:47;22.60;36.00
61979;DHT22;47938;48.176;16.414;2022-09-01T13:45:14;22.80;35.30
61979;DHT22;47938;48.176;16.414;2022-09-01T13:47:40;23.00;33.90
61979;DHT22;47938;48.176;16.414;2022-09-01T13:50:07;23.00;33.30
61979;DHT22;47938;48.176;16.414;2022-09-01T13:52:33;22.80;33.60
61979;DHT22;47938;48.176;16.414;2022-09-01T13:54:59;22.70;34.30
61979;DHT22;47938;48.176;16.414;2022-09-01T13:57:24;22.50;34.10
61979;DHT22;47938;48.176;16.414;2022-09-01T13:59:50;22.40;34.40
61979;DHT22;47938;48.176;16.414;2022-09-01T14:02:16;22.50;34.30
61979;DHT22;47938;48.176;16.414;2022-09-01T14:04:41;22.50;34.30
61979;DHT22;47938;48.176;16.414;2022-09-01T14:07:07;22.60;34.20
61979;DHT22;47938;48.176;16.414;2022-09-01T14:09:33;22.70;34.60
61979;DHT22;47938;48.176;16.414;2022-09-01T14:11:58;22.80;35.30
61979;DHT22;47938;48.176;16.414;2022-09-01T14:14:24;22.60;35.00
61979;DHT22;47938;48.176;16.414;2022-09-01T14:16:50;22.40;35.40
61979;DHT22;47938;48.176;16.414;2022-09-01T14:19:16;22.30;36.00
61979;DHT22;47938;48.176;16.414;2022-09-01T14:21:42;22.10;35.80
61979;DHT22;47938;48.176;16.414;2022-09-01T14:24:08;22.00;36.10
61979;DHT22;47938;48.176;16.414;2022-09-01T14:26:33;22.20;35.40
61979;DHT22;47938;48.176;16.414;2022-09-01T14:28:59;22.40;34.60
61979;DHT22;47938;48.176;16.414;2022-09-01T14:31:25;22.40;33.90
61979;DHT22;47938;48.176;16.414;2022-09-01T14:33:50;22.40;35.00
61979;DHT22;47938;48.176;16.414;2022-09-01T14:36:19;22.50;35.00
61979;DHT22;47938;48.176;16.414;2022-09-01T14:38:45;22.80;34.10
61979;DHT22;47938;48.176;16.414;2022-09-01T14:41:15;22.70;33.80
61979;DHT22;47938;48.176;16.414;2022-09-01T14:43:41;22.70;33.70
61979;DHT22;47938;48.176;16.414;2022-09-01T14:46:07;22.60;33.60
61979;DHT22;47938;48.176;16.414;2022-09-01T14:48:34;22.70;33.40
61979;DHT22;47938;48.176;16.414;2022-09-01T14:51:00;22.80;33.40
61979;DHT22;47938;48.176;16.414;2022-09-01T14:53:26;22.60;33.40
61979;DHT22;47938;48.176;16.414;2022-09-01T14:55:52;22.70;33.40
61979;DHT22;47938;48.176;16.414;2022-09-01T14:58:17;22.60;33.00
61979;DHT22;47938;48.176;16.414;2022-09-01T15:00:43;22.70;33.80
61979;DHT22;47938;48.176;16.414;2022-09-01T15:03:08;22.50;33.10
61979;DHT22;47938;48.176;16.414;2022-09-01T15:05:35;22.50;33.30
61979;DHT22;47938;48.176;16.414;2022-09-01T15:08:01;22.40;33.20
61979;DHT22;47938;48.176;16.414;2022-09-01T15:10:27;22.50;32.60
61979;DHT22;47938;48.176;16.414;2022-09-01T15:12:55;22.30;33.50
61979;DHT22;47938;48.176;16.414;2022-09-01T15:15:21;22.40;33.00
61979;DHT22;47938;48.176;16.414;2022-09-01T15:17:46;22.40;33.20
61979;DHT22;47938;48.176;16.414;2022-09-01T15:20:12;22.40;33.40
61979;DHT22;47938;48.176;16.414;2022-09-01T15:22:38;22.50;33.60
61979;DHT22;47938;48.176;16.414;2022-09-01T15:25:04;22.30;32.50
61979;DHT22;47938;48.176;16.414;2022-09-01T15:27:30;22.20;32.30
61979;DHT22;47938;48.176;16.414;2022-09-01T15:29:55;22.20;32.50
61979;DHT22;47938;48.176;16.414;2022-09-01T15:32:21;22.10;32.20
61979;DHT22;47938;48.176;16.414;2022-09-01T15:34:46;22.00;32.60
61979;DHT22;47938;48.176;16.414;2022-09-01T15:37:12;22.00;33.20
61979;DHT22;47938;48.176;16.414;2022-09-01T15:39:37;22.00;33.40
61979;DHT22;47938;48.176;16.414;2022-09-01T15:42:03;21.90;32.90
61979;DHT22;47938;48.176;16.414;2022-09-01T15:44:29;21.90;33.00
61979;DHT22;47938;48.176;16.414;2022-09-01T15:46:54;21.90;33.00
61979;DHT22;47938;48.176;16.414;2022-09-01T15:49:20;21.90;33.20
61979;DHT22;47938;48.176;16.414;2022-09-01T15:51:46;21.90;33.00
61979;DHT22;47938;48.176;16.414;2022-09-01T15:54:15;21.80;33.00
61979;DHT22;47938;48.176;16.414;2022-09-01T15:56:41;21.90;33.00
61979;DHT22;47938;48.176;16.414;2022-09-01T15:59:07;21.90;33.40
61979;DHT22;47938;48.176;16.414;2022-09-01T16:01:38;21.80;34.30
61979;DHT22;47938;48.176;16.414;2022-09-01T16:04:05;21.80;34.70